Time;durP1;ratioP1;P1;durP2;ratioP2;P2;SDS_P1;SDS_P2;PMS_P1;PMS_P2;Temp;Humidity;BMP_temperature;BMP_pressure;BME280_temperature;BME280_humidity;BME280_pressure;Samples;Min_cycle;Max_cycle;Signal;HPM_P1;HPM_P2
2023/02/14 00:01:15;;;;;;;14.23;9.00;;;;;;;;;;5048590;28;20831;-74
2023/02/14 00:03:41;;;;;;;17.23;10.50;;;;;;;;;;5046994;28;20053;-75
2023/02/14 00:06:11;;;;;;;14.07;8.43;;;;;;;;;;5044204;28;20037;-74
2023/02/14 00:08:39;;;;;;;12.77;8.37;;;;;;;;;;5043859;28;20238;-75
2023/02/14 00:11:05;;;;;;;15.07;8.90;;;;;;;;;;5043783;28;20037;-75
2023/02/14 00:13:31;;;;;;;15.07;8.57;;;;;;;;;;5041007;28;20033;-75
2023/02/14 00:15:57;;;;;;;13.97;8.77;;;;;;;;;;5043870;28;20125;-75
2023/02/14 00:19:01;;;;;;;15.63;9.40;;;;;;;;;;5043944;28;20172;-76
2023/02/14 00:21:09;;;;;;;14.20;8.67;;;;;;;;;;5028451;28;20374;-75
2023/02/14 00:23:35;;;;;;;18.60;9.90;;;;;;;;;;5044555;28;20079;-77
2023/02/14 00:26:01;;;;;;;17.27;9.27;;;;;;;;;;5028043;28;20029;-76
2023/02/14 00:28:27;;;;;;;19.53;10.10;;;;;;;;;;5045128;28;20034;-75
2023/02/14 00:30:56;;;;;;;13.67;8.77;;;;;;;;;;5029685;28;20068;-75
2023/02/14 00:33:22;;;;;;;17.87;9.27;;;;;;;;;;5025245;28;20076;-75
2023/02/14 00:35:48;;;;;;;14.60;8.83;;;;;;;;;;5043689;28;21635;-75
2023/02/14 00:38:14;;;;;;;15.77;8.20;;;;;;;;;;5027625;28;20025;-75
2023/02/14 00:40:40;;;;;;;14.50;8.10;;;;;;;;;;5042238;28;20088;-75
2023/02/14 00:43:06;;;;;;;12.90;8.53;;;;;;;;;;5043235;28;20061;-75
2023/02/14 00:45:32;;;;;;;15.13;7.83;;;;;;;;;;5044300;28;21791;-75
2023/02/14 00:47:58;;;;;;;13.60;7.97;;;;;;;;;;5026218;28;20017;-75
2023/02/14 00:50:24;;;;;;;12.83;8.03;;;;;;;;;;5044737;28;20032;-75
2023/02/14 00:52:49;;;;;;;15.63;8.23;;;;;;;;;;5044934;28;20022;-75
2023/02/14 00:55:16;;;;;;;14.33;7.83;;;;;;;;;;5040575;28;20044;-75
2023/02/14 00:57:42;;;;;;;12.43;8.70;;;;;;;;;;5043594;28;20076;-75
2023/02/14 01:00:08;;;;;;;12.93;8.33;;;;;;;;;;5045154;28;20439;-75
2023/02/14 01:02:36;;;;;;;12.47;8.07;;;;;;;;;;5044824;28;20457;-74
2023/02/14 01:05:02;;;;;;;12.43;8.07;;;;;;;;;;5043213;28;20037;-75
2023/02/14 01:07:28;;;;;;;16.07;8.57;;;;;;;;;;5042995;28;20034;-76
2023/02/14 01:09:54;;;;;;;12.77;8.00;;;;;;;;;;5040866;28;20026;-75
2023/02/14 01:12:20;;;;;;;11.20;7.50;;;;;;;;;;5043522;28;20580;-75
2023/02/14 01:14:48;;;;;;;15.50;9.07;;;;;;;;;;5027405;28;20032;-75
2023/02/14 01:17:14;;;;;;;15.23;8.90;;;;;;;;;;5042741;28;20103;-75
2023/02/14 01:19:41;;;;;;;13.07;8.63;;;;;;;;;;5040589;28;20398;-75
2023/02/14 01:22:10;;;;;;;16.50;9.27;;;;;;;;;;5042612;28;20030;-75
2023/02/14 01:24:36;;;;;;;15.13;9.10;;;;;;;;;;5042129;28;20050;-75
2023/02/14 01:27:01;;;;;;;15.20;9.30;;;;;;;;;;5043483;28;20061;-75
2023/02/14 01:29:27;;;;;;;17.40;9.07;;;;;;;;;;5042703;28;20366;-76
2023/02/14 01:31:53;;;;;;;14.87;9.30;;;;;;;;;;5040952;28;20055;-75
2023/02/14 01:34:19;;;;;;;15.80;9.40;;;;;;;;;;5042267;28;20045;-75
2023/02/14 01:36:45;;;;;;;14.87;9.37;;;;;;;;;;5042421;28;20033;-75
2023/02/14 01:39:12;;;;;;;16.43;9.27;;;;;;;;;;5042336;28;20153;-76
2023/02/14 01:41:47;;;;;;;13.70;9.00;;;;;;;;;;5044105;28;20103;-77
2023/02/14 01:44:13;;;;;;;17.00;10.07;;;;;;;;;;5044348;28;20029;-75
2023/02/14 01:46:42;;;;;;;17.20;9.23;;;;;;;;;;5041033;28;20032;-76
2023/02/14 01:49:11;;;;;;;15.50;9.97;;;;;;;;;;5045544;28;20101;-75
2023/02/14 01:51:40;;;;;;;16.80;10.10;;;;;;;;;;5042761;28;20117;-75
2023/02/14 01:54:07;;;;;;;14.97;9.33;;;;;;;;;;5027010;28;20048;-75
2023/02/14 01:56:38;;;;;;;17.60;10.23;;;;;;;;;;5042130;28;20029;-75
2023/02/14 01:59:05;;;;;;;17.60;9.87;;;;;;;;;;5041845;28;20370;-75
2023/02/14 02:01:31;;;;;;;14.47;9.27;;;;;;;;;;5042805;28;20025;-75
2023/02/14 02:04:00;;;;;;;17.27;9.33;;;;;;;;;;5042459;28;20103;-75
2023/02/14 02:06:34;;;;;;;15.00;9.70;;;;;;;;;;5039441;28;20021;-75
2023/02/14 02:09:00;;;;;;;21.37;10.57;;;;;;;;;;5039962;28;20029;-76
2023/02/14 02:11:27;;;;;;;14.70;9.80;;;;;;;;;;5042514;28;20025;-75
2023/02/14 02:13:53;;;;;;;17.33;10.07;;;;;;;;;;5042786;28;20605;-76
2023/02/14 02:16:30;;;;;;;15.80;10.00;;;;;;;;;;5042125;28;20082;-76
2023/02/14 02:19:04;;;;;;;18.80;10.03;;;;;;;;;;5042510;28;20030;-75
2023/02/14 02:21:42;;;;;;;18.23;10.80;;;;;;;;;;5042856;28;20037;-76
2023/02/14 02:24:25;;;;;;;19.37;10.83;;;;;;;;;;5041127;28;20049;-75
2023/02/14 02:26:54;;;;;;;19.23;11.52;;;;;;;;;;5044959;28;20028;-75
2023/02/14 02:29:39;;;;;;;16.07;9.57;;;;;;;;;;5040187;28;20038;-75
2023/02/14 02:32:12;;;;;;;19.57;11.10;;;;;;;;;;5041927;28;20030;-75
2023/02/14 02:34:48;;;;;;;18.40;11.15;;;;;;;;;;5042489;28;20037;-75
2023/02/14 02:37:30;;;;;;;18.17;11.10;;;;;;;;;;5041209;28;20033;-75
2023/02/14 02:40:02;;;;;;;17.73;10.80;;;;;;;;;;5042078;28;20140;-75
2023/02/14 02:42:35;;;;;;;17.52;11.25;;;;;;;;;;5029477;28;20029;-76
2023/02/14 02:45:01;;;;;;;19.43;11.93;;;;;;;;;;5055670;28;20441;-76
2023/02/14 02:47:33;;;;;;;21.10;12.20;;;;;;;;;;5037962;28;20041;-76
2023/02/14 02:53:05;;;;;;;20.87;12.67;;;;;;;;;;5030562;28;20044;-76
2023/02/14 02:58:39;;;;;;;18.47;11.23;;;;;;;;;;5015827;28;20140;-76
2023/02/14 03:01:10;;;;;;;22.43;13.27;;;;;;;;;;5046288;28;20127;-76
2023/02/14 03:06:24;;;;;;;21.70;11.77;;;;;;;;;;5035239;28;20090;-76
2023/02/14 03:08:50;;;;;;;19.53;12.03;;;;;;;;;;5033081;28;20033;-76
2023/02/14 03:11:16;;;;;;;21.53;11.97;;;;;;;;;;5050968;28;20025;-76
2023/02/14 03:14:00;;;;;;;19.70;12.60;;;;;;;;;;5067426;28;20036;-75
2023/02/14 03:16:31;;;;;;;21.30;12.53;;;;;;;;;;5036622;28;20040;-77
2023/02/14 03:21:54;;;;;;;24.77;14.33;;;;;;;;;;5034606;28;20346;-76
2023/02/14 03:24:23;;;;;;;28.07;13.90;;;;;;;;;;5033834;28;20654;-76
2023/02/14 03:27:06;;;;;;;27.23;14.17;;;;;;;;;;5033486;28;20306;-76
2023/02/14 03:29:54;;;;;;;22.85;13.95;;;;;;;;;;5033320;28;20026;-75
2023/02/14 03:32:29;;;;;;;27.17;15.07;;;;;;;;;;5039001;28;20043;-75
2023/02/14 03:35:19;;;;;;;21.97;13.77;;;;;;;;;;5054604;28;20264;-75
2023/02/14 03:37:51;;;;;;;21.27;14.47;;;;;;;;;;5037082;28;20038;-76
2023/02/14 03:40:29;;;;;;;22.20;13.57;;;;;;;;;;5038315;28;20409;-77
2023/02/14 03:42:57;;;;;;;27.00;14.73;;;;;;;;;;5038885;28;20036;-75
2023/02/14 03:45:29;;;;;;;26.27;15.70;;;;;;;;;;5040838;28;20029;-76
2023/02/14 03:47:57;;;;;;;27.25;16.40;;;;;;;;;;5050560;28;20389;-76
2023/02/14 03:50:25;;;;;;;26.90;15.13;;;;;;;;;;5036366;28;20036;-75
2023/02/14 03:52:53;;;;;;;29.77;16.60;;;;;;;;;;5063119;28;20036;-75
2023/02/14 03:55:24;;;;;;;27.40;17.10;;;;;;;;;;5039624;28;20268;-75
2023/02/14 03:58:19;;;;;;;28.43;17.07;;;;;;;;;;5038300;28;20447;-75
2023/02/14 04:00:48;;;;;;;26.93;16.10;;;;;;;;;;5036575;28;20285;-75
2023/02/14 04:03:16;;;;;;;29.10;17.00;;;;;;;;;;5037401;28;20307;-75
2023/02/14 04:05:45;;;;;;;29.63;17.73;;;;;;;;;;5037438;28;20697;-76
2023/02/14 04:08:11;;;;;;;28.27;17.50;;;;;;;;;;5052632;28;20306;-76
2023/02/14 04:10:38;;;;;;;30.40;17.30;;;;;;;;;;5039851;28;20283;-75
2023/02/14 04:13:04;;;;;;;33.73;17.43;;;;;;;;;;5048552;28;20329;-76
2023/02/14 04:15:31;;;;;;;32.23;17.70;;;;;;;;;;5056664;28;20263;-75
2023/02/14 04:20:41;;;;;;;33.43;18.37;;;;;;;;;;5027666;28;20322;-75
2023/02/14 04:23:07;;;;;;;35.03;20.03;;;;;;;;;;5027872;28;20267;-76
2023/02/14 04:25:33;;;;;;;37.10;20.47;;;;;;;;;;5046416;28;21698;-75
2023/02/14 04:27:59;;;;;;;34.30;19.20;;;;;;;;;;5042101;28;20025;-75
2023/02/14 04:30:25;;;;;;;33.63;20.07;;;;;;;;;;5029976;28;20151;-76
2023/02/14 04:32:51;;;;;;;37.13;20.33;;;;;;;;;;5044453;28;20040;-75
2023/02/14 04:35:17;;;;;;;41.33;20.80;;;;;;;;;;5042529;28;20434;-76
2023/02/14 04:37:44;;;;;;;42.53;22.90;;;;;;;;;;5026329;28;20768;-75
2023/02/14 04:40:10;;;;;;;40.27;20.90;;;;;;;;;;5026538;28;20355;-75
2023/02/14 04:42:36;;;;;;;41.03;22.57;;;;;;;;;;5042878;28;20317;-75
2023/02/14 04:45:02;;;;;;;40.23;22.03;;;;;;;;;;5040977;28;20308;-75
2023/02/14 04:47:28;;;;;;;45.60;23.43;;;;;;;;;;5044821;28;20026;-76
2023/02/14 04:49:54;;;;;;;42.57;22.97;;;;;;;;;;5042346;28;20715;-76
2023/02/14 04:52:20;;;;;;;36.27;22.17;;;;;;;;;;5043530;28;20037;-74
2023/02/14 04:54:47;;;;;;;39.40;21.40;;;;;;;;;;5026371;28;20283;-77
2023/02/14 04:57:16;;;;;;;36.57;21.53;;;;;;;;;;5042863;28;20051;-75
2023/02/14 04:59:42;;;;;;;43.53;23.23;;;;;;;;;;5042589;28;20341;-75
2023/02/14 05:02:10;;;;;;;43.03;23.13;;;;;;;;;;5030792;28;20799;-76
2023/02/14 05:04:36;;;;;;;41.27;22.67;;;;;;;;;;5042853;28;20276;-76
2023/02/14 05:07:02;;;;;;;42.33;22.50;;;;;;;;;;5045499;28;20276;-76
2023/02/14 05:09:28;;;;;;;43.60;24.00;;;;;;;;;;5043169;28;20276;-75
2023/02/14 05:11:54;;;;;;;42.43;23.83;;;;;;;;;;5028225;28;20442;-75
2023/02/14 05:14:20;;;;;;;44.67;23.57;;;;;;;;;;5047555;28;20051;-75
2023/02/14 05:16:46;;;;;;;48.27;25.13;;;;;;;;;;5030798;28;20055;-76
2023/02/14 05:19:12;;;;;;;43.60;24.37;;;;;;;;;;5042650;28;20748;-75
2023/02/14 05:21:38;;;;;;;48.43;25.50;;;;;;;;;;5027096;28;20052;-77
2023/02/14 05:24:04;;;;;;;51.93;25.17;;;;;;;;;;5030229;28;20389;-76
2023/02/14 05:26:30;;;;;;;46.57;25.97;;;;;;;;;;5025163;28;20026;-76
2023/02/14 05:28:56;;;;;;;46.23;24.73;;;;;;;;;;5025370;28;20304;-75
2023/02/14 05:31:22;;;;;;;51.77;26.70;;;;;;;;;;5042516;28;20281;-75
2023/02/14 05:33:48;;;;;;;46.20;25.70;;;;;;;;;;5043144;28;20294;-75
2023/02/14 05:36:14;;;;;;;44.47;25.00;;;;;;;;;;5025967;28;20033;-75
2023/02/14 05:38:40;;;;;;;47.90;25.13;;;;;;;;;;5042643;28;20041;-75
2023/02/14 05:41:06;;;;;;;42.67;23.80;;;;;;;;;;5041903;28;20044;-75
2023/02/14 05:43:35;;;;;;;44.23;24.83;;;;;;;;;;5044514;28;20030;-75
2023/02/14 05:46:01;;;;;;;49.63;27.17;;;;;;;;;;5026754;28;20287;-75
2023/02/14 05:48:27;;;;;;;49.53;25.27;;;;;;;;;;5025251;28;20792;-76
2023/02/14 05:50:53;;;;;;;50.57;25.93;;;;;;;;;;5044908;28;20091;-75
2023/02/14 05:53:19;;;;;;;45.70;24.43;;;;;;;;;;5042591;28;20290;-75
2023/02/14 05:55:45;;;;;;;50.93;26.60;;;;;;;;;;5041643;28;20355;-75
2023/02/14 05:58:11;;;;;;;48.57;24.27;;;;;;;;;;5045566;28;20284;-75
2023/02/14 06:00:37;;;;;;;48.73;25.27;;;;;;;;;;5044217;28;21846;-75
2023/02/14 06:03:03;;;;;;;44.73;23.03;;;;;;;;;;5042886;28;20272;-77
2023/02/14 06:05:29;;;;;;;48.37;24.73;;;;;;;;;;5041482;28;20341;-75
2023/02/14 06:07:55;;;;;;;52.10;27.87;;;;;;;;;;5041321;28;20030;-75
2023/02/14 06:10:24;;;;;;;50.43;25.77;;;;;;;;;;5026916;28;20284;-75
2023/02/14 06:12:51;;;;;;;45.30;24.13;;;;;;;;;;5041749;28;20291;-75
2023/02/14 06:15:19;;;;;;;44.80;24.10;;;;;;;;;;5041895;28;20291;-75
2023/02/14 06:17:46;;;;;;;48.37;25.40;;;;;;;;;;5044145;28;20276;-76
2023/02/14 06:20:12;;;;;;;49.90;25.60;;;;;;;;;;5026355;28;20284;-75
2023/02/14 06:22:38;;;;;;;48.63;27.10;;;;;;;;;;5024629;28;20804;-75
2023/02/14 06:25:05;;;;;;;53.33;26.90;;;;;;;;;;5044161;28;20334;-75
2023/02/14 06:27:31;;;;;;;48.97;27.67;;;;;;;;;;5040989;28;20030;-77
2023/02/14 06:29:59;;;;;;;48.40;26.97;;;;;;;;;;5041042;28;20272;-76
2023/02/14 06:32:25;;;;;;;54.17;28.53;;;;;;;;;;5043173;28;20359;-76
2023/02/14 06:34:51;;;;;;;53.03;29.63;;;;;;;;;;5024201;28;20387;-75
2023/02/14 06:37:18;;;;;;;53.63;28.30;;;;;;;;;;5024821;28;20087;-75
2023/02/14 06:39:44;;;;;;;52.37;27.73;;;;;;;;;;5024966;28;20045;-75
2023/02/14 06:42:10;;;;;;;54.27;27.47;;;;;;;;;;5025628;28;20280;-75
2023/02/14 06:44:36;;;;;;;46.83;26.50;;;;;;;;;;5041057;28;20029;-74
2023/02/14 06:47:03;;;;;;;50.53;28.03;;;;;;;;;;5043620;28;20484;-75
2023/02/14 06:49:29;;;;;;;61.07;28.93;;;;;;;;;;5039322;28;20410;-76
2023/02/14 06:51:57;;;;;;;60.27;30.13;;;;;;;;;;5042866;28;20314;-75
2023/02/14 06:54:23;;;;;;;55.57;29.37;;;;;;;;;;5026259;28;20262;-75
2023/02/14 06:56:51;;;;;;;61.50;30.73;;;;;;;;;;5040277;28;20052;-75
2023/02/14 06:59:17;;;;;;;63.23;30.33;;;;;;;;;;5027429;28;20037;-76
2023/02/14 07:01:43;;;;;;;64.67;31.70;;;;;;;;;;5043432;28;20316;-75
2023/02/14 07:04:12;;;;;;;58.03;29.17;;;;;;;;;;5043987;28;20644;-75
2023/02/14 07:06:40;;;;;;;62.47;30.07;;;;;;;;;;5042407;28;20099;-76
2023/02/14 07:09:06;;;;;;;61.47;30.53;;;;;;;;;;5043017;28;20100;-75
2023/02/14 07:11:32;;;;;;;58.67;29.30;;;;;;;;;;5026768;28;20290;-75
2023/02/14 07:13:58;;;;;;;58.73;30.13;;;;;;;;;;5043074;28;20280;-75
2023/02/14 07:16:24;;;;;;;57.13;29.93;;;;;;;;;;5022725;28;20088;-75
2023/02/14 07:18:50;;;;;;;58.20;29.67;;;;;;;;;;5022960;28;20112;-75
2023/02/14 07:21:16;;;;;;;63.13;30.07;;;;;;;;;;5040008;28;20400;-75
2023/02/14 07:23:45;;;;;;;56.07;28.73;;;;;;;;;;5041615;28;20039;-74
2023/02/14 07:26:11;;;;;;;54.20;29.77;;;;;;;;;;5028375;28;20029;-75
2023/02/14 07:28:37;;;;;;;56.90;29.50;;;;;;;;;;5041614;28;20308;-76
2023/02/14 07:31:05;;;;;;;54.90;28.67;;;;;;;;;;5025137;28;20061;-75
2023/02/14 07:33:31;;;;;;;52.47;27.83;;;;;;;;;;5040684;28;20048;-75
2023/02/14 07:35:57;;;;;;;52.17;28.97;;;;;;;;;;5039799;28;20045;-75
2023/02/14 07:38:23;;;;;;;53.70;27.40;;;;;;;;;;5040431;28;20030;-75
2023/02/14 07:40:49;;;;;;;55.83;30.63;;;;;;;;;;5025523;28;20033;-75
2023/02/14 07:43:15;;;;;;;58.37;30.30;;;;;;;;;;5040910;28;20595;-75
2023/02/14 07:45:41;;;;;;;53.90;28.17;;;;;;;;;;5039612;28;20125;-75
2023/02/14 07:48:10;;;;;;;52.50;27.00;;;;;;;;;;5040236;28;20107;-75
2023/02/14 07:50:45;;;;;;;54.03;27.47;;;;;;;;;;5039477;28;20079;-75
2023/02/14 07:53:11;;;;;;;51.47;26.70;;;;;;;;;;5025558;28;20045;-75
2023/02/14 07:55:39;;;;;;;54.80;28.30;;;;;;;;;;5022856;28;20040;-75
2023/02/14 07:58:05;;;;;;;54.93;27.30;;;;;;;;;;5022911;28;20021;-75
2023/02/14 08:00:31;;;;;;;51.20;27.77;;;;;;;;;;5039899;28;20030;-75
2023/02/14 08:02:57;;;;;;;50.17;27.43;;;;;;;;;;5039517;28;20124;-75
2023/02/14 08:05:23;;;;;;;50.77;25.73;;;;;;;;;;5038090;28;20052;-76
2023/02/14 08:07:49;;;;;;;47.80;25.33;;;;;;;;;;5040977;28;20079;-75
2023/02/14 08:10:15;;;;;;;45.80;25.27;;;;;;;;;;5023452;28;20030;-74
2023/02/14 08:13:02;;;;;;;39.00;23.67;;;;;;;;;;5040745;28;20032;-75
2023/02/14 08:18:14;;;;;;;50.20;25.27;;;;;;;;;;5027181;28;20099;-76
2023/02/14 08:20:40;;;;;;;43.80;24.17;;;;;;;;;;5031586;28;20118;-76
2023/02/14 08:23:06;;;;;;;41.43;24.33;;;;;;;;;;5045217;28;20133;-77
2023/02/14 08:25:32;;;;;;;42.73;24.07;;;;;;;;;;5030772;28;20029;-78
2023/02/14 08:28:00;;;;;;;46.03;26.87;;;;;;;;;;5046109;28;20026;-76
2023/02/14 08:30:26;;;;;;;48.93;26.60;;;;;;;;;;5041528;28;20113;-77
2023/02/14 08:32:52;;;;;;;48.00;25.37;;;;;;;;;;5044753;28;20037;-77
2023/02/14 08:35:18;;;;;;;41.67;25.03;;;;;;;;;;5030081;28;20142;-78
2023/02/14 08:37:44;;;;;;;43.33;23.70;;;;;;;;;;5047165;28;20509;-77
2023/02/14 08:40:11;;;;;;;46.27;24.10;;;;;;;;;;5045914;28;20109;-76
2023/02/14 08:42:37;;;;;;;42.07;23.53;;;;;;;;;;5048552;28;20064;-76
2023/02/14 08:45:03;;;;;;;52.77;26.10;;;;;;;;;;5035631;28;20030;-76
